createdAt,value
2017-08-25T00:00:10.890Z,33.40
2017-08-25T00:02:39.712Z,33.40
2017-08-25T00:05:08.578Z,33.30
2017-08-25T00:07:37.252Z,33.30
2017-08-25T00:10:05.642Z,33.20
2017-08-25T00:12:34.434Z,33.10
2017-08-25T00:15:03.217Z,33.10
2017-08-25T00:17:31.895Z,33.10
2017-08-25T00:20:00.554Z,33.10
2017-08-25T00:22:29.283Z,33.00
2017-08-25T00:24:57.894Z,33.10
2017-08-25T00:27:26.644Z,33.00
2017-08-25T00:29:55.066Z,33.00
2017-08-25T00:32:23.659Z,33.10
2017-08-25T00:34:51.927Z,33.00
2017-08-25T00:37:20.510Z,33.00
2017-08-25T00:39:49.160Z,33.10
2017-08-25T00:42:17.722Z,33.10
2017-08-25T00:44:46.239Z,33.10
2017-08-25T00:47:14.922Z,33.10
2017-08-25T00:49:43.501Z,33.10
2017-08-25T00:52:12.103Z,33.00
2017-08-25T00:54:40.780Z,33.00
2017-08-25T00:57:09.561Z,33.00
2017-08-25T00:59:38.148Z,32.90
2017-08-25T01:02:06.750Z,32.90
2017-08-25T01:04:35.454Z,32.90
2017-08-25T01:07:04.178Z,32.90
2017-08-25T01:09:32.602Z,32.80
2017-08-25T01:12:01.291Z,32.80
2017-08-25T01:14:29.866Z,32.80
2017-08-25T01:16:58.395Z,32.80
2017-08-25T01:19:27.207Z,32.70
2017-08-25T01:21:55.730Z,32.70
2017-08-25T01:24:24.310Z,32.70
2017-08-25T01:26:52.917Z,32.70
2017-08-25T01:29:21.619Z,32.60
2017-08-25T01:31:50.200Z,32.60
2017-08-25T01:34:19.785Z,32.60
2017-08-25T01:36:47.906Z,32.60
2017-08-25T01:39:16.318Z,32.60
2017-08-25T01:41:45.162Z,32.50
2017-08-25T01:44:13.810Z,32.50
2017-08-25T01:46:42.490Z,32.50
2017-08-25T01:49:11.050Z,32.50
2017-08-25T01:51:39.701Z,32.50
2017-08-25T01:54:08.182Z,32.40
2017-08-25T01:56:36.394Z,32.40
2017-08-25T01:59:05.082Z,32.40
2017-08-25T02:01:33.158Z,32.40
2017-08-25T02:04:01.987Z,32.40
2017-08-25T02:06:30.668Z,32.40
2017-08-25T02:08:59.346Z,32.40
2017-08-25T02:11:27.539Z,32.40
2017-08-25T02:13:56.138Z,32.40
2017-08-25T02:16:24.861Z,32.30
2017-08-25T02:18:53.381Z,32.40
2017-08-25T02:21:22.178Z,32.40
2017-08-25T02:23:50.759Z,32.30
2017-08-25T02:26:19.539Z,32.40
2017-08-25T02:28:48.010Z,32.30
2017-08-25T02:31:16.629Z,32.40
2017-08-25T02:33:44.770Z,32.40
2017-08-25T02:36:13.379Z,32.40
2017-08-25T02:38:41.985Z,32.40
2017-08-25T02:41:10.853Z,32.50
2017-08-25T02:43:39.530Z,32.60
2017-08-25T02:46:08.063Z,32.50
2017-08-25T02:48:36.634Z,32.60
2017-08-25T02:51:05.359Z,32.60
2017-08-25T02:53:33.858Z,32.70
2017-08-25T02:56:02.046Z,32.70
2017-08-25T02:58:30.525Z,32.80
2017-08-25T03:00:59.022Z,32.80
2017-08-25T03:03:27.910Z,32.90
2017-08-25T03:05:55.998Z,32.90
2017-08-25T03:08:24.393Z,32.90
2017-08-25T03:10:52.510Z,32.80
2017-08-25T03:13:21.126Z,32.90
2017-08-25T03:15:49.634Z,33.00
2017-08-25T03:18:18.706Z,33.10
2017-08-25T03:20:47.182Z,33.30
2017-08-25T03:23:15.770Z,33.30
2017-08-25T03:25:44.558Z,33.30
2017-08-25T03:28:13.238Z,33.50
2017-08-25T03:30:41.262Z,33.40
2017-08-25T03:33:10.074Z,33.60
2017-08-25T03:35:38.690Z,33.50
2017-08-25T03:38:07.313Z,33.50
2017-08-25T03:40:36.171Z,33.50
2017-08-25T03:43:04.218Z,33.70
2017-08-25T03:45:32.754Z,33.80
2017-08-25T03:48:01.313Z,33.60
2017-08-25T03:50:29.898Z,33.70
2017-08-25T03:52:58.482Z,33.90
2017-08-25T03:55:27.438Z,34.00
2017-08-25T03:57:55.931Z,34.20
2017-08-25T04:00:24.540Z,34.30
2017-08-25T04:02:53.267Z,34.30
2017-08-25T04:05:21.806Z,34.50
2017-08-25T04:07:50.402Z,34.60
2017-08-25T04:10:19.198Z,34.80
2017-08-25T04:12:47.841Z,34.90
2017-08-25T04:15:16.657Z,35.20
2017-08-25T04:17:45.314Z,35.30
2017-08-25T04:20:13.421Z,35.70
2017-08-25T04:22:41.434Z,36.00
2017-08-25T04:25:10.326Z,36.40
2017-08-25T04:27:39.078Z,37.40
2017-08-25T04:30:07.829Z,38.70
2017-08-25T04:32:36.821Z,39.20
2017-08-25T04:35:05.222Z,39.50
2017-08-25T04:37:33.726Z,39.40
2017-08-25T04:40:02.514Z,39.40
2017-08-25T04:42:31.163Z,39.30
2017-08-25T04:44:59.721Z,38.90
2017-08-25T04:47:28.486Z,39.20
2017-08-25T04:49:57.121Z,40.00
2017-08-25T04:52:25.898Z,41.00
2017-08-25T04:54:54.702Z,41.70
2017-08-25T04:57:23.230Z,41.20
2017-08-25T04:59:51.870Z,41.00
2017-08-25T05:02:20.354Z,41.00
2017-08-25T05:04:48.878Z,40.80
2017-08-25T05:07:17.526Z,40.90
2017-08-25T05:09:45.722Z,39.90
2017-08-25T05:12:14.147Z,39.60
2017-08-25T05:14:42.582Z,39.70
2017-08-25T05:17:11.299Z,40.20
2017-08-25T05:38:23.458Z,42.30
2017-08-25T05:40:51.942Z,41.30
2017-08-25T05:43:20.662Z,41.40
2017-08-25T05:45:49.551Z,40.80
2017-08-25T05:48:17.968Z,40.10
2017-08-25T05:50:46.562Z,40.60
2017-08-25T05:53:15.270Z,40.80
2017-08-25T05:55:43.918Z,40.80
2017-08-25T05:58:12.343Z,40.80
2017-08-25T06:00:40.998Z,40.60
2017-08-25T06:03:09.673Z,41.10
2017-08-25T06:05:38.270Z,42.00
2017-08-25T06:08:06.986Z,43.20
2017-08-25T06:10:35.006Z,43.20
2017-08-25T06:13:03.018Z,43.10
2017-08-25T06:15:31.542Z,44.00
2017-08-25T06:17:59.646Z,44.20
2017-08-25T06:20:27.666Z,43.80
2017-08-25T06:22:56.026Z,44.40
2017-08-25T06:25:24.054Z,44.10
2017-08-25T06:27:52.666Z,42.90
2017-08-25T06:30:21.618Z,42.60
2017-08-25T06:32:50.170Z,41.90
2017-08-25T06:35:18.746Z,42.10
2017-08-25T06:37:47.514Z,42.10
2017-08-25T06:40:16.268Z,42.00
2017-08-25T06:42:44.290Z,41.60
2017-08-25T06:45:13.067Z,41.40
2017-08-25T06:47:41.743Z,40.90
2017-08-25T06:50:10.230Z,41.20
2017-08-25T06:52:38.406Z,40.90
2017-08-25T06:55:06.931Z,40.80
2017-08-25T06:57:34.944Z,41.00
2017-08-25T07:00:03.519Z,41.20
2017-08-25T07:02:32.138Z,41.50
2017-08-25T07:05:00.579Z,41.50
2017-08-25T07:07:29.071Z,41.80
2017-08-25T07:09:57.599Z,43.30
2017-08-25T07:12:26.270Z,44.10
2017-08-25T07:14:54.771Z,44.40
2017-08-25T07:17:23.345Z,44.70
2017-08-25T07:19:52.126Z,45.00
2017-08-25T07:22:20.918Z,45.40
2017-08-25T07:24:49.666Z,46.30
2017-08-25T07:27:17.790Z,45.70
2017-08-25T07:29:46.740Z,44.90
2017-08-25T07:32:15.131Z,43.40
2017-08-25T07:34:43.642Z,43.00
2017-08-25T07:37:12.350Z,42.90
2017-08-25T07:39:40.362Z,43.00
2017-08-25T07:42:08.402Z,43.00
2017-08-25T07:44:36.988Z,42.30
2017-08-25T07:47:05.565Z,42.10
2017-08-25T07:49:34.213Z,42.20
2017-08-25T07:52:02.796Z,42.50
2017-08-25T07:54:31.322Z,42.50
2017-08-25T07:56:59.351Z,42.20
2017-08-25T07:59:28.058Z,42.10
2017-08-25T08:01:56.645Z,41.60
2017-08-25T08:04:25.160Z,41.90
2017-08-25T08:06:53.812Z,42.00
2017-08-25T08:09:22.499Z,41.80
2017-08-25T08:11:51.272Z,41.70
2017-08-25T08:14:19.522Z,41.70
2017-08-25T08:16:48.082Z,41.50
2017-08-25T08:19:16.692Z,41.50
2017-08-25T08:21:45.073Z,41.40
2017-08-25T08:24:13.622Z,41.60
2017-08-25T08:26:42.374Z,41.60
2017-08-25T08:29:10.947Z,41.50
2017-08-25T08:31:39.514Z,41.40
2017-08-25T08:34:08.370Z,41.50
2017-08-25T08:36:43.984Z,41.60
2017-08-25T08:39:12.710Z,41.60
2017-08-25T08:41:41.366Z,41.60
2017-08-25T08:44:09.922Z,41.80
2017-08-25T08:46:38.446Z,41.70
2017-08-25T08:49:06.906Z,41.70
2017-08-25T08:51:36.071Z,41.80
2017-08-25T08:54:04.526Z,41.80
2017-08-25T08:56:33.114Z,41.80
2017-08-25T08:59:02.107Z,41.70
2017-08-25T09:01:31.625Z,41.80
2017-08-25T09:04:00.174Z,41.70
2017-08-25T09:06:38.437Z,41.70
2017-08-25T09:09:07.053Z,41.80
2017-08-25T09:11:35.526Z,42.00
2017-08-25T09:14:04.233Z,42.10
2017-08-25T09:16:32.818Z,42.00
2017-08-25T09:19:01.496Z,42.10
2017-08-25T09:21:30.170Z,42.00
2017-08-25T09:23:58.282Z,42.00
2017-08-25T09:26:26.783Z,42.10
2017-08-25T09:28:55.469Z,41.90
2017-08-25T09:31:24.222Z,41.90
2017-08-25T09:33:52.691Z,41.80
2017-08-25T09:36:21.430Z,41.70
2017-08-25T09:38:50.011Z,41.50
2017-08-25T09:41:18.730Z,41.40
2017-08-25T09:43:47.482Z,41.40
2017-08-25T09:46:16.048Z,41.40
2017-08-25T09:48:44.626Z,41.30
2017-08-25T09:51:13.581Z,41.20
2017-08-25T09:53:41.599Z,41.20
2017-08-25T09:56:10.308Z,41.30
2017-08-25T09:58:38.518Z,41.40
2017-08-25T10:01:07.146Z,41.30
2017-08-25T10:03:35.735Z,41.30
2017-08-25T10:06:04.403Z,41.20
2017-08-25T10:08:32.427Z,41.00
2017-08-25T10:11:00.445Z,40.80
2017-08-25T10:13:29.254Z,40.80
2017-08-25T10:15:57.791Z,40.90
2017-08-25T10:18:26.191Z,40.90
2017-08-25T10:20:54.319Z,40.80
2017-08-25T10:23:22.797Z,40.80
2017-08-25T10:25:50.921Z,40.70
2017-08-25T10:28:19.840Z,40.70
2017-08-25T10:30:48.247Z,40.60
2017-08-25T10:33:28.462Z,40.50
2017-08-25T10:36:08.618Z,40.60
2017-08-25T10:38:57.992Z,40.50
2017-08-25T10:41:38.371Z,40.50
2017-08-25T10:44:18.622Z,40.40
2017-08-25T10:46:46.670Z,40.20
2017-08-25T10:49:15.211Z,40.30
2017-08-25T10:51:44.070Z,40.40
2017-08-25T10:54:12.229Z,40.30
2017-08-25T10:56:40.759Z,40.10
2017-08-25T10:59:09.590Z,40.10
2017-08-25T11:01:38.090Z,40.00
2017-08-25T11:04:06.622Z,40.00
2017-08-25T11:06:34.747Z,40.00
2017-08-25T11:09:03.434Z,39.80
2017-08-25T11:11:31.463Z,39.80
2017-08-25T11:13:59.962Z,39.80
2017-08-25T11:16:28.410Z,39.60
2017-08-25T11:18:56.790Z,39.60
2017-08-25T11:21:25.462Z,39.60
2017-08-25T11:23:54.098Z,39.70
2017-08-25T11:26:22.494Z,39.50
2017-08-25T11:28:51.214Z,39.70
2017-08-25T11:31:19.326Z,39.60
2017-08-25T11:33:47.894Z,39.50
2017-08-25T11:36:16.553Z,39.50
2017-08-25T11:38:45.225Z,39.60
2017-08-25T11:41:13.822Z,39.50
2017-08-25T11:43:41.962Z,39.50
2017-08-25T11:46:10.137Z,39.50
2017-08-25T11:48:38.577Z,39.50
2017-08-25T11:51:07.463Z,39.50
2017-08-25T11:53:35.910Z,39.40
2017-08-25T11:56:04.311Z,39.40
2017-08-25T11:58:33.158Z,39.30
2017-08-25T12:01:02.650Z,39.10
2017-08-25T12:03:31.146Z,38.90
2017-08-25T12:05:59.527Z,38.90
2017-08-25T12:08:27.586Z,38.90
2017-08-25T12:10:56.222Z,38.90
2017-08-25T12:13:24.946Z,38.80
2017-08-25T12:15:53.058Z,38.70
2017-08-25T12:18:22.204Z,38.70
2017-08-25T12:20:50.374Z,38.50
2017-08-25T12:23:18.386Z,38.60
2017-08-25T12:25:47.242Z,38.60
2017-08-25T12:28:15.798Z,38.60
2017-08-25T12:30:43.847Z,38.40
2017-08-25T12:33:11.884Z,38.40
2017-08-25T12:35:40.001Z,38.40
2017-08-25T12:38:08.030Z,38.40
2017-08-25T12:40:36.037Z,38.40
2017-08-25T12:43:04.242Z,38.40
2017-08-25T12:45:32.274Z,38.30
2017-08-25T12:48:00.318Z,38.50
2017-08-25T12:50:28.543Z,38.40
2017-08-25T12:52:56.653Z,38.40
2017-08-25T12:55:26.546Z,38.40
2017-08-25T12:57:54.686Z,38.30
2017-08-25T13:00:23.537Z,38.40
2017-08-25T13:02:51.942Z,38.20
2017-08-25T13:05:20.622Z,38.20
2017-08-25T13:07:49.162Z,38.20
2017-08-25T13:10:17.185Z,38.20
2017-08-25T13:12:45.895Z,38.20
2017-08-25T13:15:14.500Z,38.10
2017-08-25T13:17:42.585Z,38.00
2017-08-25T13:20:10.713Z,38.00
2017-08-25T13:22:39.278Z,38.00
2017-08-25T13:25:07.998Z,37.90
2017-08-25T13:27:36.478Z,37.80
2017-08-25T13:30:04.926Z,37.80
2017-08-25T13:32:33.647Z,37.70
2017-08-25T13:35:02.238Z,37.70
2017-08-25T13:37:30.922Z,37.70
2017-08-25T13:39:59.542Z,37.70
2017-08-25T13:42:28.395Z,37.60
2017-08-25T13:44:56.807Z,37.60
2017-08-25T13:47:24.906Z,37.50
2017-08-25T13:49:53.438Z,37.50
2017-08-25T13:52:21.857Z,37.50
2017-08-25T13:54:50.543Z,37.50
2017-08-25T13:57:19.434Z,37.50
2017-08-25T13:59:47.901Z,37.50
2017-08-25T14:02:16.499Z,37.40
2017-08-25T14:04:45.396Z,37.50
2017-08-25T14:07:13.938Z,37.40
2017-08-25T14:09:42.494Z,37.30
2017-08-25T14:12:11.261Z,37.20
2017-08-25T14:14:40.038Z,37.20
2017-08-25T14:17:08.059Z,37.20
2017-08-25T14:19:36.716Z,37.10
2017-08-25T14:22:05.447Z,37.00
2017-08-25T14:24:33.846Z,37.00
2017-08-25T14:27:02.666Z,36.90
2017-08-25T14:29:31.270Z,36.80
2017-08-25T14:31:59.991Z,36.60
2017-08-25T14:34:28.578Z,36.70
2017-08-25T14:36:57.098Z,36.80
2017-08-25T14:39:25.783Z,36.70
2017-08-25T14:41:54.638Z,36.60
2017-08-25T14:44:23.038Z,36.50
2017-08-25T14:46:51.675Z,36.50
2017-08-25T14:49:20.450Z,36.40
2017-08-25T14:51:49.211Z,36.40
2017-08-25T14:54:17.794Z,36.30
2017-08-25T14:56:46.631Z,36.20
2017-08-25T14:59:15.282Z,36.30
2017-08-25T15:01:43.972Z,36.20
2017-08-25T15:04:12.558Z,36.10
2017-08-25T15:06:40.578Z,36.10
2017-08-25T15:09:08.992Z,36.10
2017-08-25T15:11:37.732Z,36.00
2017-08-25T15:14:06.242Z,36.00
2017-08-25T15:16:34.790Z,36.00
2017-08-25T15:19:03.386Z,36.00
2017-08-25T15:21:31.962Z,35.90
2017-08-25T15:24:00.683Z,35.90
2017-08-25T15:26:28.787Z,35.80
2017-08-25T15:28:57.484Z,35.80
2017-08-25T15:31:26.027Z,35.70
2017-08-25T15:33:54.617Z,35.80
2017-08-25T15:36:23.266Z,35.70
2017-08-25T15:38:51.955Z,35.70
2017-08-25T15:41:20.814Z,35.70
2017-08-25T15:43:49.595Z,35.70
2017-08-25T15:46:18.122Z,35.60
2017-08-25T15:48:46.782Z,35.50
2017-08-25T15:51:15.462Z,35.50
2017-08-25T15:53:44.139Z,35.50
2017-08-25T15:56:12.902Z,35.40
2017-08-25T15:58:41.323Z,35.40
2017-08-25T16:01:09.966Z,35.40
2017-08-25T16:03:38.358Z,35.40
2017-08-25T16:06:07.958Z,35.40
2017-08-25T16:08:36.350Z,35.40
2017-08-25T16:11:04.962Z,35.40
2017-08-25T16:13:33.574Z,35.40
2017-08-25T16:16:02.119Z,35.30
2017-08-25T16:18:30.782Z,35.30
2017-08-25T16:20:59.301Z,35.30
2017-08-25T16:23:27.847Z,35.30
2017-08-25T16:25:56.342Z,35.30
2017-08-25T16:28:24.782Z,35.20
2017-08-25T16:30:53.438Z,35.20
2017-08-25T16:33:21.527Z,35.20
2017-08-25T16:35:50.018Z,35.20
2017-08-25T16:38:18.742Z,35.10
2017-08-25T16:40:47.226Z,35.10
2017-08-25T16:43:15.234Z,35.10
2017-08-25T16:45:43.700Z,35.10
2017-08-25T16:48:12.407Z,35.10
2017-08-25T16:50:40.990Z,35.10
2017-08-25T16:53:09.879Z,35.10
2017-08-25T16:55:38.457Z,35.10
2017-08-25T16:58:07.054Z,35.00
2017-08-25T17:00:35.742Z,35.00
2017-08-25T17:03:04.527Z,35.00
2017-08-25T17:05:33.203Z,35.00
2017-08-25T17:08:01.686Z,35.00
2017-08-25T17:10:30.208Z,35.00
2017-08-25T17:12:58.931Z,35.00
2017-08-25T17:15:27.349Z,35.00
2017-08-25T17:17:55.890Z,35.00
2017-08-25T17:20:24.520Z,34.90
2017-08-25T17:22:53.063Z,34.90
2017-08-25T17:25:21.261Z,34.90
2017-08-25T17:27:49.274Z,34.90
2017-08-25T17:30:17.841Z,34.90
2017-08-25T17:32:46.626Z,34.90
2017-08-25T17:35:15.198Z,34.90
2017-08-25T17:37:43.694Z,34.80
2017-08-25T17:40:12.486Z,34.80
2017-08-25T17:42:41.238Z,34.80
2017-08-25T17:45:09.630Z,34.80
2017-08-25T17:47:37.886Z,34.70
2017-08-25T17:50:05.914Z,34.80
2017-08-25T17:52:34.490Z,34.80
2017-08-25T17:55:03.382Z,34.70
2017-08-25T17:57:31.494Z,34.80
2017-08-25T17:59:59.511Z,34.70
2017-08-25T18:02:27.789Z,34.70
2017-08-25T18:04:55.806Z,34.60
2017-08-25T18:07:23.834Z,34.60
2017-08-25T18:09:51.957Z,34.60
2017-08-25T18:12:19.994Z,34.70
2017-08-25T18:14:48.111Z,34.70
2017-08-25T18:17:16.306Z,34.60
2017-08-25T18:19:44.318Z,34.60
2017-08-25T18:22:12.331Z,34.60
2017-08-25T18:24:40.496Z,34.60
2017-08-25T18:27:08.558Z,34.60
2017-08-25T18:29:36.598Z,34.70
2017-08-25T18:32:04.743Z,34.60
2017-08-25T18:34:32.837Z,34.60
2017-08-25T18:37:00.855Z,34.50
2017-08-25T18:39:28.950Z,34.50
2017-08-25T18:41:56.966Z,34.50
2017-08-25T18:44:24.986Z,34.50
2017-08-25T18:46:53.103Z,34.50
2017-08-25T18:49:21.126Z,34.50
2017-08-25T18:51:49.158Z,34.50
2017-08-25T18:54:17.297Z,34.50
2017-08-25T18:56:45.313Z,34.50
2017-08-25T18:59:13.338Z,34.50
2017-08-25T19:01:41.466Z,34.50
2017-08-25T19:04:09.494Z,34.50
2017-08-25T19:06:37.608Z,34.40
2017-08-25T19:09:05.812Z,34.40
2017-08-25T19:11:33.840Z,34.40
2017-08-25T19:14:01.867Z,34.40
2017-08-25T19:16:29.988Z,34.40
2017-08-25T19:18:58.016Z,34.40
2017-08-25T19:21:26.057Z,34.40
2017-08-25T19:23:54.252Z,34.40
2017-08-25T19:26:22.286Z,34.30
2017-08-25T19:28:50.417Z,34.30
2017-08-25T19:31:18.593Z,34.30
2017-08-25T19:33:47.003Z,34.30
2017-08-25T19:36:15.059Z,34.30
2017-08-25T19:38:43.240Z,34.40
2017-08-25T19:41:11.274Z,34.30
2017-08-25T19:43:39.306Z,34.30
2017-08-25T19:46:07.466Z,34.30
2017-08-25T19:48:35.507Z,34.30
2017-08-25T19:51:03.543Z,34.30
2017-08-25T19:53:31.730Z,34.30
2017-08-25T19:55:59.754Z,34.30
2017-08-25T19:58:27.946Z,34.30
2017-08-25T20:00:56.054Z,34.30
2017-08-25T20:03:24.107Z,34.30
2017-08-25T20:05:52.166Z,34.30
2017-08-25T20:08:20.315Z,34.20
2017-08-25T20:10:48.334Z,34.20
2017-08-25T20:13:16.367Z,34.20
2017-08-25T20:15:44.508Z,34.10
2017-08-25T20:18:12.530Z,34.20
2017-08-25T20:20:40.641Z,34.10
2017-08-25T20:23:08.761Z,34.10
2017-08-25T20:25:36.790Z,34.10
2017-08-25T20:28:04.823Z,34.10
2017-08-25T20:30:33.047Z,34.10
2017-08-25T20:33:01.078Z,34.10
2017-08-25T20:35:29.115Z,34.10
2017-08-25T20:37:57.231Z,34.10
2017-08-25T20:40:25.262Z,34.10
2017-08-25T20:42:53.298Z,34.10
2017-08-25T20:45:21.457Z,34.10
2017-08-25T20:47:49.503Z,34.10
2017-08-25T20:50:17.538Z,34.10
2017-08-25T20:52:45.799Z,34.00
2017-08-25T20:55:13.838Z,34.00
2017-08-25T20:57:41.871Z,34.00
2017-08-25T21:00:10.174Z,34.00
2017-08-25T21:02:38.199Z,33.90
2017-08-25T21:05:06.265Z,34.00
2017-08-25T21:07:34.458Z,34.00
2017-08-25T21:10:02.542Z,34.00
2017-08-25T21:12:30.571Z,33.90
2017-08-25T21:14:58.710Z,33.80
2017-08-25T21:17:26.731Z,33.90
2017-08-25T21:19:54.778Z,33.80
2017-08-25T21:22:23.120Z,33.80
2017-08-25T21:24:51.202Z,33.70
2017-08-25T21:27:19.225Z,33.70
2017-08-25T21:29:47.410Z,33.70
2017-08-25T21:32:15.442Z,33.60
2017-08-25T21:34:43.470Z,33.70
2017-08-25T21:37:11.677Z,33.60
2017-08-25T21:39:39.689Z,33.60
2017-08-25T21:42:07.711Z,33.60
2017-08-25T21:44:35.834Z,33.70
2017-08-25T21:47:03.856Z,33.60
2017-08-25T21:49:31.887Z,33.50
2017-08-25T21:52:00.003Z,33.50
2017-08-25T21:54:28.033Z,33.60
2017-08-25T21:56:56.083Z,33.60
2017-08-25T21:59:24.190Z,33.60
2017-08-25T22:01:52.212Z,33.50
2017-08-25T22:04:20.235Z,33.50
2017-08-25T22:06:48.333Z,33.50
2017-08-25T22:09:16.362Z,33.50
2017-08-25T22:11:44.390Z,33.50
2017-08-25T22:14:12.571Z,33.50
2017-08-25T22:16:40.678Z,33.50
2017-08-25T22:19:08.703Z,33.50
2017-08-25T22:21:36.889Z,33.50
2017-08-25T22:24:04.928Z,33.60
2017-08-25T22:26:33.040Z,33.60
2017-08-25T22:29:01.176Z,33.60
2017-08-25T22:31:29.178Z,33.60
2017-08-25T22:33:57.193Z,33.60
2017-08-25T22:36:25.291Z,33.60
2017-08-25T22:38:53.334Z,33.50
2017-08-25T22:41:21.439Z,33.50
2017-08-25T22:43:49.551Z,33.50
2017-08-25T22:46:17.594Z,33.40
2017-08-25T22:48:45.619Z,33.40
2017-08-25T22:51:13.735Z,33.50
2017-08-25T22:53:41.775Z,33.50
2017-08-25T22:56:09.794Z,33.50
2017-08-25T22:58:38.019Z,33.40
2017-08-25T23:01:06.118Z,33.30
2017-08-25T23:03:34.131Z,33.30
2017-08-25T23:06:02.326Z,33.30
2017-08-25T23:08:30.356Z,33.20
2017-08-25T23:10:58.377Z,33.10
2017-08-25T23:13:26.533Z,33.10
2017-08-25T23:15:54.634Z,33.10
2017-08-25T23:18:22.654Z,33.10
2017-08-25T23:20:50.758Z,33.10
2017-08-25T23:23:18.780Z,33.10
2017-08-25T23:25:46.824Z,33.10
2017-08-25T23:28:15.887Z,33.10
2017-08-25T23:30:45.414Z,33.10
2017-08-25T23:33:14.108Z,33.10
2017-08-25T23:35:42.530Z,33.20
2017-08-25T23:38:11.642Z,33.20
2017-08-25T23:40:39.943Z,33.10
2017-08-25T23:43:08.626Z,33.10
2017-08-25T23:45:36.834Z,33.00
2017-08-25T23:48:05.172Z,33.00
2017-08-25T23:50:33.293Z,33.10
2017-08-25T23:53:01.482Z,33.00
2017-08-25T23:55:29.503Z,33.10
2017-08-25T23:57:58.138Z,33.00
